createdAt,value
2019-03-06T00:00:46.005Z,9.95
2019-03-06T00:01:49.082Z,6.83
2019-03-06T00:02:50.218Z,9.60
2019-03-06T00:03:51.370Z,7.50
2019-03-06T00:04:52.783Z,7.90
2019-03-06T00:05:53.933Z,9.90
2019-03-06T00:06:55.412Z,7.47
2019-03-06T00:07:56.541Z,8.75
2019-03-06T00:08:58.024Z,7.53
2019-03-06T00:09:59.468Z,10.40
2019-03-06T00:11:00.618Z,8.78
2019-03-06T00:12:02.047Z,11.43
2019-03-06T00:13:03.490Z,12.10
2019-03-06T00:14:05.129Z,8.43
2019-03-06T00:15:06.970Z,9.68
2019-03-06T00:16:08.111Z,8.93
2019-03-06T00:17:09.257Z,10.50
2019-03-06T00:18:10.397Z,9.88
2019-03-06T00:19:11.539Z,9.90
2019-03-06T00:20:13.084Z,10.55
2019-03-06T00:21:14.208Z,9.73
2019-03-06T00:22:15.445Z,8.43
2019-03-06T00:23:16.865Z,9.80
2019-03-06T00:24:18.113Z,10.53
2019-03-06T00:25:19.537Z,11.73
2019-03-06T00:26:20.976Z,7.08
2019-03-06T00:27:22.153Z,9.23
2019-03-06T00:28:24.060Z,9.70
2019-03-06T00:29:25.218Z,8.28
2019-03-06T00:30:26.424Z,11.75
2019-03-06T00:31:27.553Z,9.45
2019-03-06T00:32:28.738Z,9.83
2019-03-06T00:33:29.977Z,10.28
2019-03-06T00:34:31.130Z,9.33
2019-03-06T00:35:40.178Z,8.00
2019-03-06T00:36:42.038Z,9.48
2019-03-06T00:37:43.476Z,10.45
2019-03-06T00:38:45.022Z,10.13
2019-03-06T00:39:48.069Z,8.08
2019-03-06T00:41:06.597Z,8.03
2019-03-06T00:42:07.817Z,9.65
2019-03-06T00:43:08.953Z,11.93
2019-03-06T00:44:10.107Z,7.90
2019-03-06T00:45:12.709Z,7.65
2019-03-06T00:46:14.051Z,10.50
2019-03-06T00:47:15.184Z,12.35
2019-03-06T00:48:16.623Z,8.38
2019-03-06T00:49:17.870Z,11.22
2019-03-06T00:50:19.392Z,8.68
2019-03-06T00:51:20.534Z,8.18
2019-03-06T00:52:21.675Z,8.23
2019-03-06T00:53:22.805Z,10.48
2019-03-06T00:54:23.958Z,9.03
2019-03-06T00:55:25.093Z,10.32
2019-03-06T00:56:26.508Z,8.95
2019-03-06T00:57:27.637Z,9.68
2019-03-06T00:58:28.824Z,11.43
2019-03-06T00:59:30.413Z,9.00
2019-03-06T01:00:31.854Z,9.00
2019-03-06T01:01:33.312Z,9.38
2019-03-06T01:02:34.446Z,8.45
2019-03-06T01:03:35.591Z,14.07
2019-03-06T01:04:36.802Z,9.25
2019-03-06T01:05:37.937Z,8.60
2019-03-06T01:06:39.078Z,9.70
2019-03-06T01:07:40.220Z,8.48
2019-03-06T01:08:41.366Z,7.80
2019-03-06T01:09:42.524Z,7.33
2019-03-06T01:10:43.762Z,10.93
2019-03-06T01:11:44.957Z,11.40
2019-03-06T01:12:46.091Z,7.78
2019-03-06T01:13:47.230Z,11.60
2019-03-06T01:14:48.379Z,8.38
2019-03-06T01:15:49.517Z,8.60
2019-03-06T01:16:50.653Z,8.93
2019-03-06T01:17:52.174Z,8.70
2019-03-06T01:18:53.605Z,12.13
2019-03-06T01:19:54.831Z,9.58
2019-03-06T01:20:56.065Z,9.48
2019-03-06T01:21:57.209Z,11.18
2019-03-06T01:22:58.345Z,6.25
2019-03-06T01:23:59.485Z,8.85
2019-03-06T01:25:00.633Z,8.50
2019-03-06T01:26:02.253Z,13.93
2019-03-06T01:27:03.493Z,11.90
2019-03-06T01:28:04.626Z,7.10
2019-03-06T01:29:05.769Z,10.40
2019-03-06T01:30:19.566Z,9.58
2019-03-06T01:31:20.711Z,10.00
2019-03-06T01:32:21.853Z,7.60
2019-03-06T01:33:24.898Z,9.33
2019-03-06T01:34:42.965Z,7.30
2019-03-06T01:35:46.051Z,7.22
2019-03-06T01:36:49.105Z,8.58
2019-03-06T01:37:52.146Z,7.65
2019-03-06T01:38:55.289Z,6.67
2019-03-06T01:40:07.174Z,7.25
2019-03-06T01:41:16.309Z,7.20
2019-03-06T01:42:22.301Z,8.40
2019-03-06T01:43:34.402Z,9.23
2019-03-06T01:44:37.445Z,10.00
2019-03-06T01:45:38.796Z,6.72
2019-03-06T01:46:39.946Z,9.63
2019-03-06T01:47:41.338Z,8.28
2019-03-06T01:48:42.465Z,5.80
2019-03-06T01:49:43.609Z,7.22
2019-03-06T01:50:44.776Z,8.08
2019-03-06T01:51:46.217Z,9.70
2019-03-06T01:52:47.369Z,9.25
2019-03-06T01:53:48.505Z,11.97
2019-03-06T01:54:49.646Z,11.10
2019-03-06T01:55:51.197Z,5.90
2019-03-06T01:56:52.338Z,8.43
2019-03-06T01:57:53.477Z,11.38
2019-03-06T01:58:54.616Z,9.60
2019-03-06T01:59:56.094Z,9.10
2019-03-06T02:00:57.536Z,8.53
2019-03-06T02:01:58.674Z,6.85
2019-03-06T02:02:59.813Z,10.23
2019-03-06T02:04:01.657Z,11.18
2019-03-06T02:05:06.418Z,9.38
2019-03-06T02:06:07.914Z,10.18
2019-03-06T02:07:09.066Z,8.48
2019-03-06T02:08:10.406Z,9.63
2019-03-06T02:09:12.449Z,11.70
2019-03-06T02:10:14.502Z,7.83
2019-03-06T02:11:15.636Z,8.90
2019-03-06T02:12:16.776Z,6.17
2019-03-06T02:13:21.217Z,9.38
2019-03-06T02:14:22.709Z,9.13
2019-03-06T02:15:23.954Z,6.85
2019-03-06T02:16:25.218Z,12.53
2019-03-06T02:17:26.361Z,9.80
2019-03-06T02:18:28.045Z,9.63
2019-03-06T02:19:29.285Z,6.97
2019-03-06T02:20:30.441Z,7.17
2019-03-06T02:21:31.587Z,6.55
2019-03-06T02:22:32.729Z,8.85
2019-03-06T02:23:33.874Z,6.12
2019-03-06T02:24:35.017Z,7.83
2019-03-06T02:25:36.306Z,8.33
2019-03-06T02:26:37.496Z,8.05
2019-03-06T02:27:38.722Z,5.92
2019-03-06T02:28:39.874Z,7.47
2019-03-06T02:29:41.112Z,9.85
2019-03-06T02:30:42.280Z,6.00
2019-03-06T02:31:43.516Z,6.95
2019-03-06T02:32:44.662Z,6.62
2019-03-06T02:33:45.824Z,7.00
2019-03-06T02:34:47.046Z,8.68
2019-03-06T02:35:48.249Z,5.28
2019-03-06T02:36:49.405Z,8.00
2019-03-06T02:37:50.554Z,8.95
2019-03-06T02:38:51.703Z,8.68
2019-03-06T02:39:52.945Z,7.10
2019-03-06T02:40:54.140Z,6.22
2019-03-06T02:41:55.319Z,6.53
2019-03-06T02:42:56.464Z,4.97
2019-03-06T02:43:57.619Z,7.17
2019-03-06T02:44:58.753Z,4.85
2019-03-06T02:45:59.906Z,6.05
2019-03-06T02:47:01.054Z,7.03
2019-03-06T02:48:02.197Z,7.97
2019-03-06T02:49:03.342Z,8.98
2019-03-06T02:50:08.186Z,9.48
2019-03-06T02:51:09.462Z,7.72
2019-03-06T02:52:10.682Z,6.33
2019-03-06T02:53:11.824Z,5.75
2019-03-06T02:54:13.253Z,6.75
2019-03-06T02:55:15.440Z,4.28
2019-03-06T02:56:16.620Z,5.22
2019-03-06T02:57:17.950Z,9.18
2019-03-06T02:58:21.015Z,6.33
2019-03-06T02:59:26.671Z,6.87
2019-03-06T03:00:38.755Z,5.05
2019-03-06T03:01:41.877Z,7.35
2019-03-06T03:02:44.918Z,7.08
2019-03-06T03:04:03.121Z,7.83
2019-03-06T03:05:09.026Z,6.87
2019-03-06T03:06:21.085Z,8.13
2019-03-06T03:07:22.225Z,8.48
2019-03-06T03:08:23.676Z,12.03
2019-03-06T03:09:24.921Z,10.82
2019-03-06T03:10:26.293Z,7.40
2019-03-06T03:11:27.457Z,7.95
2019-03-06T03:12:28.712Z,7.53
2019-03-06T03:13:29.854Z,10.10
2019-03-06T03:14:31.299Z,10.08
2019-03-06T03:15:32.522Z,11.97
2019-03-06T03:16:34.026Z,7.97
2019-03-06T03:17:35.161Z,10.43
2019-03-06T03:18:36.302Z,13.32
2019-03-06T03:19:37.451Z,7.10
2019-03-06T03:20:38.965Z,10.58
2019-03-06T03:21:40.141Z,10.25
2019-03-06T03:22:41.358Z,14.70
2019-03-06T03:23:42.499Z,10.15
2019-03-06T03:24:43.857Z,11.97
2019-03-06T03:25:44.998Z,11.85
2019-03-06T03:26:46.434Z,9.93
2019-03-06T03:27:47.879Z,12.55
2019-03-06T03:28:49.018Z,15.03
2019-03-06T03:29:50.164Z,9.38
2019-03-06T03:30:51.717Z,12.78
2019-03-06T03:31:53.227Z,11.73
2019-03-06T03:32:54.367Z,11.68
2019-03-06T03:33:55.985Z,10.08
2019-03-06T03:34:57.222Z,12.05
2019-03-06T03:35:58.399Z,9.68
2019-03-06T03:36:59.682Z,10.93
2019-03-06T03:38:00.863Z,11.60
2019-03-06T03:39:02.883Z,8.63
2019-03-06T03:40:10.625Z,12.15
2019-03-06T03:41:12.022Z,12.25
2019-03-06T03:42:13.276Z,11.08
2019-03-06T03:43:14.522Z,13.18
2019-03-06T03:44:15.661Z,16.67
2019-03-06T03:45:16.794Z,10.40
2019-03-06T03:46:17.942Z,12.30
2019-03-06T03:47:19.109Z,13.75
2019-03-06T03:48:20.378Z,11.20
2019-03-06T03:49:21.587Z,12.60
2019-03-06T03:50:22.825Z,12.65
2019-03-06T03:51:24.066Z,13.88
2019-03-06T03:52:25.638Z,11.25
2019-03-06T03:53:26.949Z,13.58
2019-03-06T03:54:28.206Z,13.40
2019-03-06T03:55:29.354Z,14.00
2019-03-06T03:56:30.498Z,11.25
2019-03-06T03:57:31.655Z,10.93
2019-03-06T03:58:32.801Z,11.28
2019-03-06T03:59:34.037Z,13.25
2019-03-06T04:00:35.441Z,11.57
2019-03-06T04:01:37.285Z,11.38
2019-03-06T04:02:38.534Z,12.37
2019-03-06T04:03:40.338Z,9.15
2019-03-06T04:04:41.580Z,10.78
2019-03-06T04:05:42.722Z,12.25
2019-03-06T04:06:43.863Z,10.20
2019-03-06T04:07:45.068Z,16.57
2019-03-06T04:08:46.277Z,10.93
2019-03-06T04:09:47.423Z,10.05
2019-03-06T04:10:48.690Z,12.80
2019-03-06T04:11:49.834Z,10.13
2019-03-06T04:12:50.989Z,14.13
2019-03-06T04:13:52.786Z,12.25
2019-03-06T04:14:53.925Z,13.13
2019-03-06T04:15:55.464Z,13.65
2019-03-06T04:16:56.613Z,11.40
2019-03-06T04:17:57.754Z,11.28
2019-03-06T04:18:59.182Z,10.55
2019-03-06T04:20:00.520Z,14.50
2019-03-06T04:21:01.807Z,12.50
2019-03-06T04:22:03.067Z,13.00
2019-03-06T04:23:04.331Z,13.83
2019-03-06T04:24:05.729Z,14.65
2019-03-06T04:25:08.628Z,15.00
2019-03-06T04:26:09.874Z,15.80
2019-03-06T04:27:11.055Z,12.47
2019-03-06T04:28:12.542Z,11.45
2019-03-06T04:29:14.034Z,13.72
2019-03-06T04:30:17.007Z,11.68
2019-03-06T04:31:18.508Z,10.32
2019-03-06T04:32:19.944Z,12.18
2019-03-06T04:33:21.189Z,12.15
2019-03-06T04:34:22.418Z,13.48
2019-03-06T04:35:23.658Z,12.58
2019-03-06T04:36:24.797Z,11.73
2019-03-06T04:37:25.962Z,13.25
2019-03-06T04:38:27.104Z,11.90
2019-03-06T04:39:28.583Z,11.25
2019-03-06T04:40:29.727Z,11.48
2019-03-06T04:41:30.870Z,13.18
2019-03-06T04:42:32.017Z,10.60
2019-03-06T04:43:33.149Z,14.38
2019-03-06T04:44:34.293Z,10.70
2019-03-06T04:45:35.529Z,13.45
2019-03-06T04:46:36.689Z,13.75
2019-03-06T04:47:37.837Z,11.78
2019-03-06T04:48:38.983Z,14.20
2019-03-06T04:49:40.542Z,14.70
2019-03-06T04:50:42.178Z,14.35
2019-03-06T04:51:43.713Z,16.37
2019-03-06T04:52:44.866Z,12.75
2019-03-06T04:53:46.008Z,12.60
2019-03-06T04:54:47.428Z,13.98
2019-03-06T04:55:48.673Z,12.28
2019-03-06T04:56:49.825Z,11.65
2019-03-06T04:57:50.979Z,11.22
2019-03-06T04:58:52.460Z,13.28
2019-03-06T04:59:53.601Z,14.28
2019-03-06T05:00:55.039Z,14.73
2019-03-06T05:01:56.190Z,12.05
2019-03-06T05:02:57.714Z,13.85
2019-03-06T05:03:59.157Z,13.88
2019-03-06T05:05:00.347Z,10.82
2019-03-06T05:06:01.546Z,11.95
2019-03-06T05:07:03.081Z,11.22
2019-03-06T05:08:05.706Z,12.60
2019-03-06T05:09:07.058Z,12.33
2019-03-06T05:10:10.050Z,11.83
2019-03-06T05:11:11.302Z,11.60
2019-03-06T05:12:12.445Z,10.30
2019-03-06T05:13:13.608Z,11.15
2019-03-06T05:14:14.748Z,16.15
2019-03-06T05:15:17.002Z,15.23
2019-03-06T05:16:18.767Z,11.22
2019-03-06T05:17:21.912Z,11.95
2019-03-06T05:18:30.667Z,13.13
2019-03-06T05:19:31.905Z,12.63
2019-03-06T05:20:33.086Z,10.72
2019-03-06T05:21:34.242Z,13.78
2019-03-06T05:22:35.384Z,11.50
2019-03-06T05:23:36.529Z,15.30
2019-03-06T05:24:37.936Z,12.37
2019-03-06T05:25:39.062Z,14.35
2019-03-06T05:26:40.216Z,15.83
2019-03-06T05:27:41.363Z,12.47
2019-03-06T05:28:42.558Z,12.47
2019-03-06T05:29:43.794Z,14.40
2019-03-06T05:30:45.032Z,14.47
2019-03-06T05:32:22.049Z,16.00
2019-03-06T05:33:23.546Z,17.70
2019-03-06T05:34:24.702Z,14.30
2019-03-06T05:35:38.420Z,15.60
2019-03-06T05:36:49.554Z,14.90
2019-03-06T05:38:03.456Z,12.65
2019-03-06T05:39:09.202Z,14.70
2019-03-06T05:40:10.601Z,14.75
2019-03-06T05:41:11.749Z,17.55
2019-03-06T05:42:12.891Z,15.00
2019-03-06T05:43:14.138Z,14.80
2019-03-06T05:44:15.291Z,15.00
2019-03-06T05:45:16.701Z,16.12
2019-03-06T05:46:17.976Z,16.32
2019-03-06T05:47:19.114Z,15.48
2019-03-06T05:48:20.513Z,16.50
2019-03-06T05:49:21.686Z,16.90
2019-03-06T05:50:22.827Z,15.38
2019-03-06T05:51:24.250Z,16.93
2019-03-06T05:52:25.389Z,15.85
2019-03-06T05:53:26.619Z,13.83
2019-03-06T05:54:27.878Z,16.17
2019-03-06T05:55:29.265Z,17.85
2019-03-06T05:56:30.405Z,13.70
2019-03-06T05:57:31.545Z,17.05
2019-03-06T05:58:32.689Z,13.58
2019-03-06T05:59:33.834Z,14.68
2019-03-06T06:00:34.991Z,15.83
2019-03-06T06:01:36.389Z,15.85
2019-03-06T06:02:37.533Z,15.18
2019-03-06T06:03:38.683Z,16.52
2019-03-06T06:04:39.824Z,16.05
2019-03-06T06:05:41.061Z,15.80
2019-03-06T06:06:42.222Z,20.25
2019-03-06T06:07:43.708Z,17.50
2019-03-06T06:08:44.857Z,18.57
2019-03-06T06:09:46.001Z,17.25
2019-03-06T06:10:47.414Z,16.20
2019-03-06T06:11:48.655Z,18.42
2019-03-06T06:12:49.788Z,17.48
2019-03-06T06:13:50.945Z,18.17
2019-03-06T06:14:52.084Z,15.93
2019-03-06T06:15:53.326Z,18.85
2019-03-06T06:16:55.648Z,16.85
2019-03-06T06:17:56.809Z,18.25
2019-03-06T06:18:57.953Z,15.88
2019-03-06T06:19:59.094Z,16.95
2019-03-06T06:21:02.233Z,18.42
2019-03-06T06:22:11.247Z,18.55
2019-03-06T06:23:30.907Z,16.50
2019-03-06T06:24:32.053Z,20.30
2019-03-06T06:25:34.403Z,16.23
2019-03-06T06:26:35.546Z,20.23
2019-03-06T06:27:36.742Z,21.65
2019-03-06T06:28:38.317Z,18.30
2019-03-06T06:29:39.449Z,20.45
2019-03-06T06:30:40.591Z,20.82
2019-03-06T06:31:41.830Z,18.27
2019-03-06T06:32:42.976Z,20.00
2019-03-06T06:33:44.220Z,20.43
2019-03-06T06:34:45.361Z,20.37
2019-03-06T06:35:46.489Z,21.82
2019-03-06T06:36:47.641Z,19.67
2019-03-06T06:37:49.126Z,25.37
2019-03-06T06:38:50.571Z,20.77
2019-03-06T06:39:51.746Z,22.35
2019-03-06T06:40:53.176Z,20.57
2019-03-06T06:41:54.316Z,18.60
2019-03-06T06:42:55.465Z,21.10
2019-03-06T06:43:56.612Z,22.70
2019-03-06T06:44:57.766Z,20.52
2019-03-06T06:45:58.985Z,20.62
2019-03-06T06:47:00.132Z,23.40
2019-03-06T06:48:08.965Z,20.45
2019-03-06T06:49:10.118Z,24.18
2019-03-06T06:50:11.340Z,20.32
2019-03-06T06:51:28.318Z,23.55
2019-03-06T06:52:41.961Z,22.75
2019-03-06T06:54:04.946Z,23.15
2019-03-06T06:55:21.731Z,22.65
2019-03-06T06:56:38.232Z,28.55
2019-03-06T06:57:58.418Z,25.10
2019-03-06T06:59:08.760Z,21.40
2019-03-06T07:00:30.591Z,23.02
2019-03-06T07:02:03.007Z,22.52
2019-03-06T07:03:30.766Z,25.23
2019-03-06T07:04:43.337Z,24.40
2019-03-06T07:05:49.182Z,24.40
2019-03-06T07:06:52.228Z,25.15
2019-03-06T07:08:04.794Z,25.82
2019-03-06T07:09:13.429Z,23.50
2019-03-06T07:10:33.650Z,23.90
2019-03-06T07:11:36.789Z,23.87
2019-03-06T07:12:39.838Z,27.37
2019-03-06T07:13:49.255Z,22.55
2019-03-06T07:15:04.115Z,27.93
2019-03-06T07:16:09.992Z,27.58
2019-03-06T07:17:15.846Z,25.50
2019-03-06T07:18:36.723Z,27.45
2019-03-06T07:19:39.775Z,24.23
2019-03-06T07:20:48.646Z,26.80
2019-03-06T07:22:08.417Z,29.92
2019-03-06T07:23:11.467Z,23.47
2019-03-06T07:24:31.326Z,25.95
2019-03-06T07:25:34.365Z,26.33
2019-03-06T07:26:52.285Z,25.55
2019-03-06T07:27:58.453Z,29.52
2019-03-06T07:29:18.205Z,28.52
2019-03-06T07:30:30.029Z,28.47
2019-03-06T07:31:38.627Z,26.25
2019-03-06T07:32:50.414Z,30.15
2019-03-06T07:33:55.991Z,25.70
2019-03-06T07:35:45.697Z,31.55
2019-03-06T07:36:48.801Z,30.88
2019-03-06T07:37:51.906Z,32.42
2019-03-06T07:38:53.045Z,28.45
2019-03-06T07:39:54.293Z,30.32
2019-03-06T07:41:00.120Z,33.40
2019-03-06T07:42:05.941Z,31.25
2019-03-06T07:43:09.004Z,29.80
2019-03-06T07:44:18.067Z,28.85
2019-03-06T07:45:27.489Z,32.48
2019-03-06T07:46:30.561Z,32.70
2019-03-06T07:47:36.716Z,34.35
2019-03-06T07:48:40.362Z,33.80
2019-03-06T07:49:53.455Z,32.80
2019-03-06T07:51:08.570Z,32.28
2019-03-06T07:52:31.571Z,33.67
2019-03-06T07:54:01.013Z,34.25
2019-03-06T07:55:06.779Z,37.28
2019-03-06T07:56:09.823Z,28.50
2019-03-06T07:57:13.335Z,33.95
2019-03-06T07:58:53.478Z,30.82
2019-03-06T07:59:54.631Z,33.50
2019-03-06T08:00:55.775Z,29.65
2019-03-06T08:02:00.474Z,31.10
2019-03-06T08:03:04.382Z,28.42
2019-03-06T08:04:07.822Z,30.88
2019-03-06T08:05:09.573Z,30.72
2019-03-06T08:06:10.726Z,29.80
2019-03-06T08:07:13.177Z,32.10
2019-03-06T08:08:14.615Z,32.60
2019-03-06T08:09:18.466Z,30.70
2019-03-06T08:10:21.523Z,31.95
2019-03-06T08:11:36.420Z,32.28
2019-03-06T08:12:39.466Z,31.55
2019-03-06T08:13:42.510Z,28.52
2019-03-06T08:14:51.412Z,28.05
2019-03-06T08:17:14.448Z,28.57
2019-03-06T08:18:17.493Z,31.60
2019-03-06T08:19:20.533Z,27.00
2019-03-06T08:20:42.249Z,34.33
2019-03-06T08:22:01.877Z,30.48
2019-03-06T08:23:20.007Z,31.62
2019-03-06T08:24:23.058Z,28.02
2019-03-06T08:25:43.805Z,26.80
2019-03-06T08:26:44.954Z,28.05
2019-03-06T08:27:46.114Z,29.25
2019-03-06T08:28:47.262Z,27.37
2019-03-06T08:29:48.786Z,24.98
2019-03-06T08:30:51.939Z,26.57
2019-03-06T08:31:53.078Z,28.50
2019-03-06T08:32:54.221Z,27.13
2019-03-06T08:33:55.361Z,25.48
2019-03-06T08:34:56.509Z,24.05
2019-03-06T08:35:57.659Z,28.15
2019-03-06T08:36:58.814Z,22.17
2019-03-06T08:37:59.958Z,26.00
2019-03-06T08:39:01.111Z,29.67
2019-03-06T08:40:04.437Z,24.35
2019-03-06T08:41:07.012Z,24.60
2019-03-06T08:42:08.551Z,26.62
2019-03-06T08:43:09.702Z,26.05
2019-03-06T08:44:10.840Z,24.75
2019-03-06T08:45:14.786Z,25.68
2019-03-06T08:46:17.837Z,25.68
2019-03-06T08:47:20.888Z,26.70
2019-03-06T08:48:39.353Z,24.52
2019-03-06T08:49:45.266Z,27.40
2019-03-06T08:50:54.355Z,27.22
2019-03-06T08:52:06.542Z,27.30
2019-03-06T08:53:12.242Z,36.13
2019-03-06T08:54:15.351Z,27.62
2019-03-06T08:55:36.614Z,29.70
2019-03-06T08:56:48.537Z,28.25
2019-03-06T08:57:51.586Z,27.98
2019-03-06T08:59:12.797Z,26.82
2019-03-06T09:00:20.148Z,26.30
2019-03-06T09:01:28.136Z,26.27
2019-03-06T09:02:31.290Z,27.85
2019-03-06T09:03:46.540Z,28.07
2019-03-06T09:04:55.401Z,25.85
2019-03-06T09:06:01.759Z,26.37
2019-03-06T09:07:04.911Z,27.85
2019-03-06T09:08:17.274Z,30.20
2019-03-06T09:09:36.099Z,24.15
2019-03-06T09:10:42.417Z,29.87
2019-03-06T09:11:45.464Z,26.33
2019-03-06T09:13:03.392Z,28.92
2019-03-06T09:14:23.193Z,27.35
2019-03-06T09:15:26.633Z,24.72
2019-03-06T09:16:29.689Z,26.80
2019-03-06T09:17:49.458Z,28.20
2019-03-06T09:18:52.597Z,26.65
2019-03-06T09:20:04.476Z,27.27
2019-03-06T09:21:22.353Z,26.12
2019-03-06T09:22:34.286Z,26.12
2019-03-06T09:23:43.438Z,26.62
2019-03-06T09:24:46.614Z,23.00
2019-03-06T09:25:49.671Z,23.95
2019-03-06T09:27:01.584Z,29.82
2019-03-06T09:28:07.854Z,24.63
2019-03-06T09:29:29.067Z,24.18
2019-03-06T09:30:32.319Z,24.77
2019-03-06T09:31:50.597Z,20.88
2019-03-06T09:32:59.190Z,23.50
2019-03-06T09:34:17.271Z,23.00
2019-03-06T09:35:29.504Z,20.95
2019-03-06T09:36:35.101Z,28.77
2019-03-06T09:37:49.733Z,22.27
2019-03-06T09:38:53.789Z,22.65
2019-03-06T09:39:56.828Z,21.02
2019-03-06T09:41:02.417Z,21.55
2019-03-06T10:04:13.962Z,13.00
2019-03-06T10:05:29.038Z,15.90
2019-03-06T10:08:55.648Z,10.30
2019-03-06T10:11:22.165Z,12.60
2019-03-06T10:14:49.106Z,12.90
2019-03-06T10:18:12.221Z,12.60
2019-03-06T10:21:26.842Z,14.20
2019-03-06T10:23:29.235Z,14.13
2019-03-06T10:25:32.622Z,10.20
2019-03-06T10:26:33.953Z,11.35
2019-03-06T10:30:40.092Z,11.90
2019-03-06T10:31:41.243Z,13.00
2019-03-06T10:32:42.504Z,11.55
2019-03-06T10:33:43.868Z,11.25
2019-03-06T10:34:45.211Z,12.40
2019-03-06T10:35:46.554Z,9.30
2019-03-06T10:36:47.713Z,13.05
2019-03-06T10:37:48.874Z,11.80
2019-03-06T10:39:51.454Z,9.00
2019-03-06T11:03:41.280Z,7.92
2019-03-06T11:06:47.302Z,5.97
2019-03-06T11:07:48.563Z,7.42
2019-03-06T11:08:49.901Z,5.85
2019-03-06T11:09:51.142Z,5.05
2019-03-06T11:10:52.589Z,4.72
2019-03-06T11:11:54.205Z,4.58
2019-03-06T11:12:55.543Z,8.35
2019-03-06T11:14:05.791Z,5.33
2019-03-06T11:14:59.862Z,8.40
2019-03-06T11:16:01.205Z,6.67
2019-03-06T11:17:02.538Z,6.83
2019-03-06T11:18:04.114Z,4.97
2019-03-06T11:19:05.595Z,6.28
2019-03-06T11:20:13.491Z,5.97
2019-03-06T11:21:14.675Z,7.28
2019-03-06T11:22:16.356Z,4.53
2019-03-06T11:23:17.507Z,4.80
2019-03-06T11:24:18.857Z,5.53
2019-03-06T11:25:21.005Z,5.62
2019-03-06T11:26:22.455Z,6.35
2019-03-06T11:27:23.705Z,5.08
2019-03-06T11:28:25.041Z,5.22
2019-03-06T11:29:26.395Z,7.47
2019-03-06T11:30:31.241Z,4.75
2019-03-06T11:31:32.785Z,8.13
2019-03-06T11:32:33.934Z,6.00
2019-03-06T14:40:29.872Z,4.47
2019-03-06T14:41:31.116Z,3.77
2019-03-06T14:42:32.382Z,58.45
2019-03-06T14:43:33.661Z,23.40
2019-03-06T14:44:34.894Z,34.13
2019-03-06T14:45:56.002Z,11.25
2019-03-06T14:46:57.270Z,6.20
2019-03-06T14:47:58.650Z,3.20
2019-03-06T14:48:59.906Z,16.30
2019-03-06T14:50:01.259Z,9.23
2019-03-06T14:51:02.527Z,4.10
2019-03-06T14:52:07.280Z,8.98
2019-03-06T14:53:06.818Z,10.20
2019-03-06T14:54:08.361Z,6.97
2019-03-06T14:55:11.597Z,7.05
2019-03-06T14:56:12.742Z,36.42
2019-03-06T14:57:14.121Z,6.72
2019-03-06T14:58:15.465Z,33.05
2019-03-06T14:59:16.688Z,30.55
2019-03-06T15:00:20.330Z,26.80
2019-03-06T15:01:21.733Z,8.60
2019-03-06T15:02:23.026Z,16.48
2019-03-06T15:03:24.201Z,7.65
2019-03-06T15:04:25.432Z,27.17
2019-03-06T15:05:26.566Z,42.83
2019-03-06T15:06:28.210Z,37.45
2019-03-06T15:07:29.470Z,51.85
2019-03-06T15:08:30.705Z,12.60
2019-03-06T15:09:31.858Z,7.33
2019-03-06T15:10:33.102Z,11.95
2019-03-06T15:11:34.233Z,9.00
2019-03-06T15:12:35.387Z,5.08
2019-03-06T15:13:36.613Z,5.10
2019-03-06T15:14:38.072Z,3.85
2019-03-06T15:15:39.754Z,7.20
2019-03-06T15:16:40.956Z,4.53
2019-03-06T15:17:42.669Z,5.95
2019-03-06T15:18:43.805Z,5.28
2019-03-06T15:19:44.962Z,3.60
2019-03-06T15:20:46.141Z,3.42
2019-03-06T15:21:47.490Z,4.42
2019-03-06T15:22:49.854Z,4.40
2019-03-06T15:23:51.271Z,4.42
2019-03-06T15:24:52.405Z,5.12
2019-03-06T15:25:53.641Z,4.45
2019-03-06T15:26:54.782Z,5.05
2019-03-06T15:27:55.935Z,4.05
2019-03-06T15:28:57.074Z,6.87
2019-03-06T15:29:58.314Z,4.70
2019-03-06T15:30:59.470Z,6.37
2019-03-06T15:32:00.934Z,4.70
2019-03-06T15:33:02.098Z,8.25
2019-03-06T15:34:03.238Z,4.85
2019-03-06T15:35:06.184Z,2.50
2019-03-06T15:36:07.622Z,3.22
2019-03-06T15:37:08.769Z,4.25
2019-03-06T15:38:10.028Z,2.55
2019-03-06T15:39:26.026Z,5.20
2019-03-06T15:40:30.365Z,4.65
2019-03-06T15:41:31.601Z,5.15
2019-03-06T15:42:32.802Z,3.95
2019-03-06T15:43:34.209Z,3.37
2019-03-06T15:44:54.409Z,2.60
2019-03-06T15:46:02.959Z,3.00
2019-03-06T15:47:04.734Z,2.98
2019-03-06T15:48:05.890Z,4.97
2019-03-06T15:49:07.060Z,5.37
2019-03-06T15:50:10.986Z,4.08
2019-03-06T15:51:12.447Z,4.47
2019-03-06T15:52:13.795Z,2.62
2019-03-06T15:53:23.846Z,5.87
2019-03-06T15:54:18.087Z,4.65
2019-03-06T15:55:27.484Z,3.17
2019-03-06T15:56:28.630Z,4.55
2019-03-06T15:57:30.385Z,4.03
2019-03-06T15:58:31.985Z,3.90
2019-03-06T15:59:33.230Z,4.87
2019-03-06T16:00:45.376Z,4.78
2019-03-06T16:01:39.009Z,3.67
2019-03-06T16:02:40.252Z,4.70
2019-03-06T16:03:41.404Z,3.00
2019-03-06T16:04:43.053Z,3.92
2019-03-06T16:05:44.879Z,4.90
2019-03-06T16:06:53.755Z,5.12
2019-03-06T16:07:49.559Z,4.47
2019-03-06T16:08:51.155Z,4.60
2019-03-06T16:09:52.591Z,4.33
2019-03-06T16:10:53.837Z,5.75
2019-03-06T16:11:54.981Z,3.45
2019-03-06T16:12:56.313Z,3.98
2019-03-06T16:13:57.855Z,7.10
2019-03-06T16:14:58.997Z,6.15
2019-03-06T16:16:00.239Z,5.97
2019-03-06T16:17:01.382Z,2.25
2019-03-06T16:18:04.630Z,6.10
2019-03-06T16:19:06.172Z,6.40
2019-03-06T16:20:27.546Z,5.65
2019-03-06T16:21:30.546Z,5.15
2019-03-06T16:22:31.685Z,3.37
2019-03-06T16:23:32.930Z,5.00
2019-03-06T16:24:34.068Z,4.85
2019-03-06T16:25:37.900Z,5.22
2019-03-06T16:26:38.254Z,2.75
2019-03-06T16:27:39.499Z,3.17
2019-03-06T16:28:40.649Z,4.35
2019-03-06T16:29:42.065Z,5.65
2019-03-06T16:30:43.209Z,3.77
2019-03-06T16:31:44.744Z,5.37
2019-03-06T16:32:45.977Z,7.37
2019-03-06T16:33:47.125Z,6.72
2019-03-06T16:34:48.298Z,4.15
2019-03-06T16:35:49.793Z,5.92
2019-03-06T16:36:51.225Z,4.15
2019-03-06T16:37:52.717Z,5.12
2019-03-06T16:38:53.876Z,4.78
2019-03-06T16:39:55.456Z,5.47
2019-03-06T16:40:56.692Z,5.17
2019-03-06T16:41:57.839Z,7.37
2019-03-06T16:42:59.359Z,5.62
2019-03-06T16:44:00.706Z,6.67
2019-03-06T16:45:03.364Z,5.62
2019-03-06T16:46:04.793Z,4.22
2019-03-06T16:47:06.903Z,5.67
2019-03-06T16:48:08.275Z,5.22
2019-03-06T16:49:09.837Z,7.03
2019-03-06T16:50:16.469Z,4.87
2019-03-06T16:51:17.636Z,3.55
2019-03-06T16:52:18.781Z,5.22
2019-03-06T16:53:19.925Z,4.92
2019-03-06T16:54:21.279Z,5.22
2019-03-06T16:55:24.024Z,8.30
2019-03-06T16:56:25.978Z,4.87
2019-03-06T16:57:27.161Z,4.70
2019-03-06T16:58:28.710Z,4.15
2019-03-06T16:59:31.857Z,3.85
2019-03-06T17:00:34.761Z,6.83
2019-03-06T17:01:35.898Z,5.95
2019-03-06T17:02:37.139Z,5.97
2019-03-06T17:03:38.478Z,2.85
2019-03-06T17:04:39.745Z,4.55
2019-03-06T17:05:40.984Z,6.22
2019-03-06T17:06:42.167Z,4.97
2019-03-06T17:07:43.338Z,5.42
2019-03-06T17:08:44.749Z,5.08
2019-03-06T17:09:46.237Z,4.53
2019-03-06T17:10:47.399Z,3.67
2019-03-06T17:11:48.634Z,3.20
2019-03-06T17:12:49.988Z,5.17
2019-03-06T17:13:51.130Z,3.87
2019-03-06T17:14:52.292Z,2.95
2019-03-06T17:15:54.050Z,5.90
2019-03-06T17:16:55.482Z,6.60
2019-03-06T17:44:35.080Z,6.12
2019-03-06T17:45:36.611Z,4.97
2019-03-06T17:46:37.861Z,4.50
2019-03-06T17:47:39.523Z,5.65
2019-03-06T17:48:40.881Z,2.67
2019-03-06T17:49:42.071Z,4.92
2019-03-06T17:50:43.632Z,2.87
2019-03-06T17:51:44.872Z,3.05
2019-03-06T17:52:46.122Z,3.10
2019-03-06T17:53:47.259Z,2.12
2019-03-06T17:54:48.427Z,3.90
2019-03-06T17:55:49.569Z,3.92
2019-03-06T17:56:50.918Z,4.28
2019-03-06T17:57:52.190Z,5.67
2019-03-06T17:58:53.403Z,4.70
2019-03-06T17:59:54.545Z,3.67
2019-03-06T18:00:57.594Z,3.25
2019-03-06T18:01:59.067Z,4.28
2019-03-06T18:03:00.908Z,2.40
2019-03-06T18:04:06.746Z,6.87
2019-03-06T18:05:08.303Z,4.22
2019-03-06T18:06:09.546Z,3.00
2019-03-06T18:07:10.898Z,6.90
2019-03-06T18:08:12.225Z,5.40
2019-03-06T18:11:19.374Z,4.10
2019-03-06T18:22:34.301Z,5.10
2019-03-06T18:39:55.208Z,3.00
2019-03-06T18:40:56.352Z,3.40
2019-03-06T18:41:57.958Z,4.20
2019-03-06T18:42:59.102Z,6.30
2019-03-06T18:44:00.247Z,4.72
2019-03-06T18:45:03.431Z,3.52
2019-03-06T18:46:04.787Z,4.00
2019-03-06T18:47:07.472Z,6.10
2019-03-06T18:48:08.714Z,5.67
2019-03-06T18:49:09.849Z,3.52
2019-03-06T18:50:14.609Z,5.40
2019-03-06T18:51:15.765Z,5.20
2019-03-06T18:52:16.901Z,9.43
2019-03-06T18:53:18.340Z,12.73
2019-03-06T18:54:19.495Z,7.37
2019-03-06T18:55:21.123Z,4.00
2019-03-06T18:56:24.283Z,3.70